createdAt,value
2022-08-22T00:02:20.604Z,19.77
2022-08-22T00:02:44.827Z,20.70
2022-08-22T00:02:55.978Z,20.20
2022-08-22T00:04:58.486Z,19.73
2022-08-22T00:07:44.316Z,19.76
2022-08-22T00:10:25.550Z,19.76
2022-08-22T00:13:06.907Z,19.76
2022-08-22T00:15:44.317Z,19.77
2022-08-22T00:18:23.841Z,19.77
2022-08-22T00:21:13.644Z,19.78
2022-08-22T00:23:52.661Z,19.81
2022-08-22T00:26:45.436Z,19.76
2022-08-22T00:29:20.682Z,19.72
2022-08-22T00:31:52.863Z,19.76
2022-08-22T00:34:31.180Z,19.77
2022-08-22T00:37:08.455Z,19.79
2022-08-22T00:39:45.063Z,19.77
2022-08-22T00:42:56.313Z,19.72
2022-08-22T00:45:56.651Z,19.72
2022-08-22T00:48:47.618Z,19.72
2022-08-22T00:51:55.984Z,19.75
2022-08-22T00:54:39.753Z,19.79
2022-08-22T00:57:30.503Z,19.78
2022-08-22T01:00:13.040Z,19.79
2022-08-22T01:03:02.913Z,19.69
2022-08-22T01:05:50.903Z,19.79
2022-08-22T01:08:54.451Z,19.80
2022-08-22T01:11:49.973Z,19.76
2022-08-22T01:14:38.915Z,19.77
2022-08-22T01:17:28.270Z,19.75
2022-08-22T01:20:29.865Z,19.74
2022-08-22T01:23:42.021Z,19.77
2022-08-22T01:27:02.060Z,19.77
2022-08-22T01:30:14.044Z,19.78
2022-08-22T01:33:09.816Z,19.78
2022-08-22T01:39:13.739Z,19.84
2022-08-22T01:42:16.857Z,19.80
2022-08-22T01:45:10.820Z,19.78
2022-08-22T01:47:50.480Z,19.75
2022-08-22T01:50:32.876Z,19.75
2022-08-22T01:53:09.796Z,19.68
2022-08-22T01:55:53.536Z,19.75
2022-08-22T01:58:28.801Z,19.72
2022-08-22T02:01:20.395Z,19.68
2022-08-22T02:04:04.402Z,19.65
2022-08-22T02:06:46.007Z,19.65
2022-08-22T02:09:31.797Z,19.49
2022-08-22T02:12:29.637Z,19.63
2022-08-22T02:15:16.680Z,19.61
2022-08-22T02:18:12.395Z,19.60
2022-08-22T02:21:05.053Z,19.48
2022-08-22T02:23:48.132Z,19.57
2022-08-22T02:26:26.468Z,19.54
2022-08-22T02:29:05.983Z,19.55
2022-08-22T02:31:45.377Z,19.46
2022-08-22T02:34:40.834Z,19.54
2022-08-22T02:37:22.144Z,19.54
2022-08-22T02:40:08.855Z,19.51
2022-08-22T02:42:46.192Z,19.53
2022-08-22T02:45:30.884Z,19.54
2022-08-22T02:48:12.663Z,19.53
2022-08-22T02:50:53.009Z,19.52
2022-08-22T02:53:34.566Z,19.53
2022-08-22T02:56:12.695Z,19.42
2022-08-22T02:58:53.446Z,19.52
2022-08-22T03:01:43.550Z,19.52
2022-08-22T03:04:25.645Z,19.52
2022-08-22T03:07:16.265Z,19.52
2022-08-22T03:09:58.521Z,19.50
2022-08-22T03:12:38.913Z,19.50
2022-08-22T03:15:22.259Z,19.46
2022-08-22T03:18:01.638Z,19.45
2022-08-22T03:20:47.350Z,19.37
2022-08-22T03:23:32.581Z,19.34
2022-08-22T03:26:14.340Z,19.34
2022-08-22T03:28:59.273Z,19.33
2022-08-22T03:31:33.967Z,19.36
2022-08-22T03:34:32.135Z,19.35
2022-08-22T03:37:13.234Z,19.30
2022-08-22T03:40:01.024Z,19.26
2022-08-22T03:42:56.938Z,19.26
2022-08-22T03:46:17.807Z,19.26
2022-08-22T03:49:17.939Z,19.09
2022-08-22T03:52:20.454Z,19.22
2022-08-22T03:55:19.534Z,19.19
2022-08-22T03:58:27.994Z,19.21
2022-08-22T04:01:28.064Z,19.14
2022-08-22T04:04:24.033Z,19.13
2022-08-22T04:07:31.778Z,19.11
2022-08-22T04:10:49.874Z,19.07
2022-08-22T04:13:52.935Z,19.05
2022-08-22T04:17:10.293Z,19.04
2022-08-22T04:20:20.894Z,19.04
2022-08-22T04:23:16.133Z,19.04
2022-08-22T04:25:54.285Z,19.10
2022-08-22T04:28:37.940Z,19.12
2022-08-22T04:31:13.568Z,19.17
2022-08-22T04:33:50.933Z,19.13
2022-08-22T04:36:27.866Z,19.12
2022-08-22T04:39:04.769Z,19.15
2022-08-22T04:41:46.813Z,19.16
2022-08-22T04:44:27.449Z,19.21
2022-08-22T04:47:03.982Z,19.20
2022-08-22T04:49:40.526Z,19.20
2022-08-22T04:52:20.924Z,19.23
2022-08-22T04:55:02.750Z,19.26
2022-08-22T04:57:48.950Z,19.29
2022-08-22T05:00:21.462Z,19.31
2022-08-22T05:02:59.029Z,19.34
2022-08-22T05:05:39.588Z,19.30
2022-08-22T05:08:18.547Z,19.31
2022-08-22T05:10:53.106Z,19.26
2022-08-22T05:13:30.101Z,19.26
2022-08-22T05:16:06.994Z,19.22
2022-08-22T05:18:46.693Z,19.20
2022-08-22T05:21:23.721Z,19.26
2022-08-22T05:24:04.274Z,19.21
2022-08-22T05:26:41.762Z,19.15
2022-08-22T05:29:20.310Z,19.09
2022-08-22T05:31:57.803Z,19.12
2022-08-22T05:34:34.209Z,19.16
2022-08-22T05:37:14.301Z,19.16
2022-08-22T05:39:50.089Z,19.13
2022-08-22T05:42:31.446Z,19.01
2022-08-22T05:45:11.510Z,19.11
2022-08-22T05:47:52.041Z,19.08
2022-08-22T05:50:35.461Z,19.11
2022-08-22T05:53:11.004Z,19.12
2022-08-22T05:55:56.462Z,19.13
2022-08-22T05:58:45.145Z,19.13
2022-08-22T06:01:25.001Z,19.11
2022-08-22T06:04:04.456Z,19.13
2022-08-22T06:06:41.187Z,19.11
2022-08-22T06:09:20.740Z,19.18
2022-08-22T06:11:59.041Z,19.18
2022-08-22T06:14:41.606Z,19.22
2022-08-22T06:17:17.788Z,19.25
2022-08-22T06:19:53.861Z,19.27
2022-08-22T06:22:29.233Z,19.30
2022-08-22T06:25:07.444Z,19.33
2022-08-22T06:27:40.253Z,19.39
2022-08-22T06:30:17.544Z,19.36
2022-08-22T06:32:59.435Z,19.46
2022-08-22T06:35:50.919Z,19.48
2022-08-22T06:38:26.969Z,19.51
2022-08-22T06:41:03.981Z,19.52
2022-08-22T06:43:43.227Z,19.57
2022-08-22T06:46:18.292Z,19.60
2022-08-22T06:48:54.785Z,19.63
2022-08-22T06:51:31.470Z,19.65
2022-08-22T06:54:06.946Z,19.69
2022-08-22T06:56:44.614Z,19.71
2022-08-22T06:59:20.230Z,19.74
2022-08-22T07:01:56.254Z,19.71
2022-08-22T07:04:29.206Z,19.65
2022-08-22T07:07:02.887Z,19.62
2022-08-22T07:09:39.096Z,19.74
2022-08-22T07:12:19.574Z,19.78
2022-08-22T07:14:58.935Z,19.78
2022-08-22T07:17:35.930Z,19.80
2022-08-22T07:20:28.075Z,19.79
2022-08-22T07:23:03.682Z,19.77
2022-08-22T07:25:49.585Z,19.78
2022-08-22T07:28:36.637Z,19.81
2022-08-22T07:31:16.804Z,19.83
2022-08-22T07:33:54.246Z,19.87
2022-08-22T07:36:36.014Z,19.88
2022-08-22T07:39:21.634Z,19.91
2022-08-22T07:42:11.379Z,19.87
2022-08-22T07:45:02.978Z,19.82
2022-08-22T07:47:52.696Z,19.86
2022-08-22T07:50:30.228Z,19.90
2022-08-22T07:53:19.623Z,19.95
2022-08-22T07:55:53.784Z,19.96
2022-08-22T07:58:29.611Z,19.94
2022-08-22T08:01:02.274Z,19.91
2022-08-22T08:03:35.466Z,19.91
2022-08-22T08:06:09.574Z,19.91
2022-08-22T08:08:45.738Z,19.90
2022-08-22T08:11:21.040Z,19.91
2022-08-22T08:13:58.474Z,19.94
2022-08-22T08:16:34.516Z,19.92
2022-08-22T08:19:08.154Z,19.92
2022-08-22T08:21:44.439Z,19.91
2022-08-22T08:24:21.719Z,19.89
2022-08-22T08:27:16.117Z,19.89
2022-08-22T08:29:59.023Z,19.86
2022-08-22T08:32:36.224Z,19.85
2022-08-22T08:35:18.088Z,19.81
2022-08-22T08:37:55.466Z,19.85
2022-08-22T08:40:56.296Z,19.87
2022-08-22T08:43:41.817Z,19.90
2022-08-22T08:46:36.615Z,19.91
2022-08-22T08:52:52.919Z,19.86
2022-08-22T08:55:41.335Z,19.95
2022-08-22T08:58:33.848Z,20.06
2022-08-22T09:01:27.679Z,20.10
2022-08-22T09:04:27.566Z,20.13
2022-08-22T09:07:25.017Z,20.16
2022-08-22T09:10:41.260Z,20.16
2022-08-22T09:13:34.517Z,20.17
2022-08-22T09:16:27.420Z,20.17
2022-08-22T09:19:30.930Z,20.19
2022-08-22T09:22:50.196Z,20.22
2022-08-22T09:25:36.799Z,20.26
2022-08-22T09:28:20.008Z,20.27
2022-08-22T09:34:13.449Z,20.28
2022-08-22T09:37:13.912Z,20.21
2022-08-22T09:39:57.557Z,20.26
2022-08-22T09:40:16.579Z,19.93
2022-08-22T09:58:27.874Z,20.47
2022-08-22T10:01:09.547Z,20.48
2022-08-22T10:04:12.690Z,20.55
2022-08-22T10:06:57.063Z,20.60
2022-08-22T10:09:36.681Z,20.58
2022-08-22T10:12:16.780Z,20.66
2022-08-22T10:15:06.872Z,20.68
2022-08-22T10:17:46.351Z,20.72
2022-08-22T10:20:27.713Z,20.71
2022-08-22T10:23:08.349Z,20.76
2022-08-22T10:25:49.939Z,20.75
2022-08-22T10:28:40.183Z,20.75
2022-08-22T10:31:27.394Z,20.76
2022-08-22T10:34:09.716Z,20.79
2022-08-22T10:36:58.270Z,20.81
2022-08-22T10:39:39.934Z,20.82
2022-08-22T10:42:28.450Z,20.82
2022-08-22T10:45:23.883Z,20.75
2022-08-22T10:48:35.214Z,20.73
2022-08-22T10:51:16.646Z,20.72
2022-08-22T10:54:27.431Z,20.64
2022-08-22T10:57:14.397Z,20.68
2022-08-22T11:00:02.699Z,20.71
2022-08-22T11:02:53.394Z,20.72
2022-08-22T11:05:32.843Z,20.69
2022-08-22T11:08:40.748Z,20.59
2022-08-22T11:11:21.493Z,20.60
2022-08-22T11:14:21.133Z,20.66
2022-08-22T11:17:09.151Z,20.61
2022-08-22T11:20:14.461Z,20.60
2022-08-22T11:22:55.756Z,20.61
2022-08-22T11:25:41.419Z,20.63
2022-08-22T11:28:34.397Z,20.59
2022-08-22T11:31:19.915Z,20.59
2022-08-22T11:33:59.749Z,20.55
2022-08-22T11:36:40.647Z,20.54
2022-08-22T11:39:23.012Z,20.58
2022-08-22T11:42:06.724Z,20.52
2022-08-22T11:44:50.766Z,20.55
2022-08-22T11:47:29.074Z,20.49
2022-08-22T11:50:13.263Z,20.47
2022-08-22T11:53:08.505Z,20.46
2022-08-22T11:55:49.313Z,20.49
2022-08-22T11:58:34.522Z,20.48
2022-08-22T12:01:17.400Z,20.50
2022-08-22T12:04:03.448Z,20.52
2022-08-22T12:06:46.836Z,20.51
2022-08-22T12:09:37.920Z,20.41
2022-08-22T12:12:31.323Z,20.44
2022-08-22T12:15:12.887Z,20.41
2022-08-22T12:18:13.484Z,20.44
2022-08-22T12:21:15.136Z,20.49
2022-08-22T12:24:11.160Z,20.34
2022-08-22T12:27:00.884Z,20.45
2022-08-22T12:29:46.180Z,20.45
2022-08-22T12:32:49.209Z,20.48
2022-08-22T12:35:33.258Z,20.42
2022-08-22T12:38:28.102Z,20.44
2022-08-22T12:41:28.477Z,20.43
2022-08-22T12:44:25.959Z,20.41
2022-08-22T12:47:10.939Z,20.35
2022-08-22T12:50:04.924Z,20.39
2022-08-22T12:52:55.273Z,20.40
2022-08-22T12:55:43.630Z,20.42
2022-08-22T12:58:33.075Z,20.43
2022-08-22T13:01:09.390Z,20.47
2022-08-22T13:03:48.515Z,20.47
2022-08-22T13:06:50.583Z,20.44
2022-08-22T13:09:31.645Z,20.41
2022-08-22T13:12:24.079Z,20.40
2022-08-22T13:15:01.297Z,20.45
2022-08-22T13:17:36.422Z,20.47
2022-08-22T13:20:14.451Z,20.49
2022-08-22T13:22:51.440Z,20.48
2022-08-22T13:25:29.980Z,20.47
2022-08-22T13:28:04.873Z,20.48
2022-08-22T13:30:41.303Z,20.51
2022-08-22T13:33:17.385Z,20.52
2022-08-22T13:35:54.283Z,20.50
2022-08-22T13:38:30.634Z,20.50
2022-08-22T13:41:05.440Z,20.49
2022-08-22T13:43:55.797Z,20.44
2022-08-22T13:46:31.502Z,20.51
2022-08-22T13:49:12.556Z,20.52
2022-08-22T13:51:52.428Z,20.55
2022-08-22T13:54:52.557Z,20.44
2022-08-22T13:57:29.003Z,20.59
2022-08-22T14:00:22.385Z,20.67
2022-08-22T14:03:08.286Z,20.79
2022-08-22T14:05:45.567Z,20.86
2022-08-22T14:08:21.002Z,20.90
2022-08-22T14:11:06.685Z,20.81
2022-08-22T14:13:44.278Z,20.89
2022-08-22T14:16:33.765Z,20.93
2022-08-22T14:19:10.505Z,20.97
2022-08-22T14:21:51.920Z,21.03
2022-08-22T14:24:28.510Z,21.09
2022-08-22T14:27:06.292Z,21.20
2022-08-22T14:29:45.093Z,21.23
2022-08-22T14:32:49.158Z,21.24
2022-08-22T14:35:35.340Z,21.23
2022-08-22T14:38:27.362Z,21.25
2022-08-22T14:41:06.992Z,21.33
2022-08-22T14:43:57.193Z,21.36
2022-08-22T14:46:36.350Z,21.37
2022-08-22T14:49:28.708Z,21.39
2022-08-22T14:52:06.224Z,21.37
2022-08-22T14:54:38.952Z,21.41
2022-08-22T14:57:20.316Z,21.38
2022-08-22T14:59:55.119Z,21.44
2022-08-22T15:02:31.520Z,21.45
2022-08-22T15:05:18.426Z,21.49
2022-08-22T15:07:59.210Z,21.53
2022-08-22T15:10:35.868Z,21.58
2022-08-22T15:13:11.474Z,21.49
2022-08-22T15:15:54.969Z,21.41
2022-08-22T15:18:38.988Z,21.40
2022-08-22T15:21:14.284Z,21.37
2022-08-22T15:23:51.698Z,21.47
2022-08-22T15:26:28.216Z,21.58
2022-08-22T15:29:07.957Z,21.61
2022-08-22T15:31:41.640Z,21.64
2022-08-22T15:34:29.825Z,21.67
2022-08-22T15:37:29.640Z,21.69
2022-08-22T15:40:11.928Z,21.74
2022-08-22T15:42:48.559Z,21.76
2022-08-22T15:45:39.607Z,21.74
2022-08-22T15:48:29.432Z,21.79
2022-08-22T15:51:09.182Z,21.80
2022-08-22T15:54:02.787Z,21.85
2022-08-22T15:57:18.512Z,21.85
2022-08-22T15:59:59.636Z,21.71
2022-08-22T16:02:36.457Z,21.75
2022-08-22T16:05:30.582Z,21.73
2022-08-22T16:08:07.890Z,21.70
2022-08-22T16:10:44.416Z,21.68
2022-08-22T16:13:41.788Z,21.60
2022-08-22T16:16:32.886Z,21.65
2022-08-22T16:19:25.513Z,21.73
2022-08-22T16:22:17.145Z,21.77
2022-08-22T16:25:06.005Z,21.75
2022-08-22T16:27:52.200Z,21.71
2022-08-22T16:30:38.952Z,21.84
2022-08-22T16:33:17.780Z,21.81
2022-08-22T16:36:25.280Z,21.76
2022-08-22T16:38:59.128Z,21.61
2022-08-22T16:41:42.042Z,21.66
2022-08-22T16:44:43.179Z,21.64
2022-08-22T16:47:20.141Z,21.60
2022-08-22T16:50:04.525Z,21.57
2022-08-22T16:52:56.362Z,21.54
2022-08-22T16:55:50.627Z,21.51
2022-08-22T16:59:19.694Z,21.43
2022-08-22T17:02:12.584Z,21.43
2022-08-22T17:04:54.922Z,21.40
2022-08-22T17:07:37.265Z,21.35
2022-08-22T17:10:26.610Z,21.29
2022-08-22T17:13:26.464Z,21.25
2022-08-22T17:16:15.817Z,21.21
2022-08-22T17:19:05.513Z,21.22
2022-08-22T17:21:53.563Z,21.20
2022-08-22T17:24:34.962Z,21.20
2022-08-22T17:27:17.767Z,21.14
2022-08-22T17:30:04.040Z,21.13
2022-08-22T17:33:00.009Z,21.13
2022-08-22T17:35:46.542Z,21.13
2022-08-22T17:38:27.868Z,21.11
2022-08-22T17:41:10.147Z,21.09
2022-08-22T17:43:55.908Z,21.08
2022-08-22T17:46:41.087Z,21.06
2022-08-22T17:49:15.698Z,21.08
2022-08-22T17:51:56.913Z,21.06
2022-08-22T17:54:40.478Z,21.01
2022-08-22T17:57:23.623Z,21.03
2022-08-22T18:00:04.800Z,21.00
2022-08-22T18:02:44.066Z,20.93
2022-08-22T18:05:30.224Z,20.93
2022-08-22T18:08:37.797Z,20.99
2022-08-22T18:11:16.324Z,20.93
2022-08-22T18:13:57.579Z,20.96
2022-08-22T18:16:33.855Z,20.97
2022-08-22T18:19:13.911Z,20.92
2022-08-22T18:21:56.272Z,20.97
2022-08-22T18:24:35.889Z,20.92
2022-08-22T18:27:34.817Z,20.89
2022-08-22T18:30:19.818Z,20.86
2022-08-22T18:33:00.428Z,20.91
2022-08-22T18:35:41.662Z,20.91
2022-08-22T18:38:23.373Z,20.90
2022-08-22T18:41:05.444Z,20.88
2022-08-22T18:43:44.579Z,20.88
2022-08-22T18:46:42.751Z,20.88
2022-08-22T18:49:43.383Z,20.91
2022-08-22T18:52:21.007Z,20.86
2022-08-22T18:55:23.633Z,20.90
2022-08-22T18:58:40.931Z,20.89
2022-08-22T19:01:44.318Z,20.92
2022-08-22T19:04:31.794Z,20.91
2022-08-22T19:07:25.283Z,20.86
2022-08-22T19:10:20.740Z,20.85
2022-08-22T19:13:21.733Z,20.79
2022-08-22T19:16:06.948Z,20.82
2022-08-22T19:18:52.223Z,20.83
2022-08-22T19:21:47.650Z,20.83
2022-08-22T19:24:57.564Z,20.84
2022-08-22T19:27:34.547Z,20.83
2022-08-22T19:30:30.208Z,20.80
2022-08-22T19:33:03.215Z,20.83
2022-08-22T19:36:09.092Z,20.84
2022-08-22T19:38:56.836Z,20.87
2022-08-22T19:41:52.626Z,20.85
2022-08-22T19:44:42.282Z,20.84
2022-08-22T19:47:28.136Z,20.84
2022-08-22T19:50:06.122Z,20.84
2022-08-22T19:52:53.077Z,20.84
2022-08-22T19:55:51.058Z,20.85
2022-08-22T19:58:33.633Z,20.86
2022-08-22T20:01:27.103Z,20.85
2022-08-22T20:04:05.551Z,20.81
2022-08-22T20:06:44.665Z,20.82
2022-08-22T20:09:34.992Z,20.82
2022-08-22T20:12:16.606Z,20.81
2022-08-22T20:14:50.157Z,20.83
2022-08-22T20:17:43.791Z,20.75
2022-08-22T20:20:36.068Z,20.81
2022-08-22T20:23:23.941Z,20.84
2022-08-22T20:25:57.330Z,20.82
2022-08-22T20:28:41.275Z,20.83
2022-08-22T20:31:24.614Z,20.85
2022-08-22T20:34:03.288Z,20.83
2022-08-22T20:36:35.909Z,20.75
2022-08-22T20:39:17.221Z,20.73
2022-08-22T20:41:55.245Z,20.76
2022-08-22T20:44:31.648Z,20.69
2022-08-22T20:47:10.341Z,20.80
2022-08-22T20:49:48.219Z,20.80
2022-08-22T20:52:28.527Z,20.80
2022-08-22T20:55:09.429Z,20.77
2022-08-22T20:57:48.518Z,20.79
2022-08-22T21:00:24.363Z,20.73
2022-08-22T21:03:00.361Z,20.75
2022-08-22T21:05:39.312Z,20.75
2022-08-22T21:08:16.660Z,20.78
2022-08-22T21:11:18.459Z,20.79
2022-08-22T21:13:51.789Z,20.78
2022-08-22T21:16:31.633Z,20.78
2022-08-22T21:19:04.314Z,20.78
2022-08-22T21:21:38.098Z,20.77
2022-08-22T21:24:12.017Z,20.64
2022-08-22T21:26:51.535Z,20.70
2022-08-22T21:29:32.756Z,20.64
2022-08-22T21:32:23.449Z,20.68
2022-08-22T21:34:56.737Z,20.63
2022-08-22T21:37:39.934Z,20.61
2022-08-22T21:40:17.709Z,20.62
2022-08-22T21:43:06.483Z,20.57
2022-08-22T21:45:45.145Z,20.63
2022-08-22T21:48:40.328Z,20.66
2022-08-22T21:51:39.098Z,20.70
2022-08-22T21:54:42.676Z,20.71
2022-08-22T21:57:34.514Z,20.71
2022-08-22T22:00:30.501Z,20.74
2022-08-22T22:03:03.427Z,20.73
2022-08-22T22:05:40.783Z,20.72
2022-08-22T22:08:13.776Z,20.74
2022-08-22T22:10:47.752Z,20.66
2022-08-22T22:13:20.774Z,20.75
2022-08-22T22:15:57.167Z,20.77
2022-08-22T22:18:33.628Z,20.76
2022-08-22T22:21:06.507Z,20.77
2022-08-22T22:23:38.770Z,20.78
2022-08-22T22:26:12.317Z,20.78
2022-08-22T22:28:50.267Z,20.78
2022-08-22T22:31:22.784Z,20.79
2022-08-22T22:33:55.141Z,20.73
2022-08-22T22:36:29.379Z,20.81
2022-08-22T22:39:01.845Z,20.80
2022-08-22T22:41:34.310Z,20.78
2022-08-22T22:44:07.215Z,20.74
2022-08-22T22:46:39.383Z,20.69
2022-08-22T22:49:11.610Z,20.69
2022-08-22T22:51:43.776Z,20.70
2022-08-22T22:54:16.599Z,20.69
2022-08-22T22:56:49.503Z,20.69
2022-08-22T22:59:24.566Z,20.58
2022-08-22T23:02:06.405Z,20.70
2022-08-22T23:04:42.638Z,20.60
2022-08-22T23:07:18.402Z,20.67
2022-08-22T23:09:50.677Z,20.67
2022-08-22T23:12:25.737Z,20.68
2022-08-22T23:14:58.013Z,20.68
2022-08-22T23:17:31.101Z,20.67
2022-08-22T23:20:03.979Z,20.64
2022-08-22T23:22:36.552Z,20.67
2022-08-22T23:25:09.958Z,20.66
2022-08-22T23:27:42.382Z,20.65
2022-08-22T23:30:15.604Z,20.64
2022-08-22T23:32:47.967Z,20.57
2022-08-22T23:35:21.106Z,20.61
2022-08-22T23:37:53.591Z,20.63
2022-08-22T23:40:25.784Z,20.61
2022-08-22T23:42:59.338Z,20.62
2022-08-22T23:45:32.005Z,20.60
2022-08-22T23:48:04.401Z,20.61
2022-08-22T23:50:36.862Z,20.59
2022-08-22T23:53:08.893Z,20.60
2022-08-22T23:55:41.144Z,20.59
2022-08-22T23:58:15.503Z,20.60
